sensor_id;sensor_type;location;lat;lon;timestamp;temperature;humidity
38480;DHT22;62333;51.980;5.934;2022-10-16T00:00:36;15.10;91.00
38480;DHT22;62333;51.980;5.934;2022-10-16T00:03:03;15.00;90.90
38480;DHT22;62333;51.980;5.934;2022-10-16T00:05:28;15.00;90.90
38480;DHT22;62333;51.980;5.934;2022-10-16T00:07:54;15.00;90.80
38480;DHT22;62333;51.980;5.934;2022-10-16T00:10:20;14.90;90.90
38480;DHT22;62333;51.980;5.934;2022-10-16T00:12:46;14.90;90.80
38480;DHT22;62333;51.980;5.934;2022-10-16T00:15:11;14.80;90.70
38480;DHT22;62333;51.980;5.934;2022-10-16T00:17:37;14.80;90.80
38480;DHT22;62333;51.980;5.934;2022-10-16T00:20:03;14.80;90.90
38480;DHT22;62333;51.980;5.934;2022-10-16T00:22:28;14.70;90.90
38480;DHT22;62333;51.980;5.934;2022-10-16T00:24:54;14.70;91.00
38480;DHT22;62333;51.980;5.934;2022-10-16T00:27:20;14.70;91.10
38480;DHT22;62333;51.980;5.934;2022-10-16T00:29:50;14.60;91.50
38480;DHT22;62333;51.980;5.934;2022-10-16T00:32:17;14.60;91.30
38480;DHT22;62333;51.980;5.934;2022-10-16T00:34:42;14.60;91.40
38480;DHT22;62333;51.980;5.934;2022-10-16T00:37:08;14.60;91.50
38480;DHT22;62333;51.980;5.934;2022-10-16T00:39:34;14.50;91.50
38480;DHT22;62333;51.980;5.934;2022-10-16T00:41:59;14.50;91.60
38480;DHT22;62333;51.980;5.934;2022-10-16T00:47:36;14.50;91.80
38480;DHT22;62333;51.980;5.934;2022-10-16T00:50:05;14.50;91.90
38480;DHT22;62333;51.980;5.934;2022-10-16T00:52:32;14.50;91.90
38480;DHT22;62333;51.980;5.934;2022-10-16T00:54:58;14.50;91.90
38480;DHT22;62333;51.980;5.934;2022-10-16T00:57:25;14.60;91.90
38480;DHT22;62333;51.980;5.934;2022-10-16T00:59:51;14.60;91.90
38480;DHT22;62333;51.980;5.934;2022-10-16T01:02:17;14.60;91.90
38480;DHT22;62333;51.980;5.934;2022-10-16T01:04:49;14.60;92.20
38480;DHT22;62333;51.980;5.934;2022-10-16T01:15:17;14.60;91.90
38480;DHT22;62333;51.980;5.934;2022-10-16T01:18:06;14.60;92.00
38480;DHT22;62333;51.980;5.934;2022-10-16T01:20:54;14.60;92.00
38480;DHT22;62333;51.980;5.934;2022-10-16T01:29:20;14.60;92.10
38480;DHT22;62333;51.980;5.934;2022-10-16T01:31:50;14.50;92.20
38480;DHT22;62333;51.980;5.934;2022-10-16T01:34:25;14.50;92.40
38480;DHT22;62333;51.980;5.934;2022-10-16T01:36:57;14.50;92.50
38480;DHT22;62333;51.980;5.934;2022-10-16T01:39:29;14.50;92.50
38480;DHT22;62333;51.980;5.934;2022-10-16T01:42:11;14.50;92.50
38480;DHT22;62333;51.980;5.934;2022-10-16T01:44:39;14.50;92.50
38480;DHT22;62333;51.980;5.934;2022-10-16T01:47:09;14.50;92.40
38480;DHT22;62333;51.980;5.934;2022-10-16T01:49:38;14.60;92.50
38480;DHT22;62333;51.980;5.934;2022-10-16T01:52:17;14.60;92.40
38480;DHT22;62333;51.980;5.934;2022-10-16T01:54:47;14.70;92.40
38480;DHT22;62333;51.980;5.934;2022-10-16T01:57:14;14.70;92.40
38480;DHT22;62333;51.980;5.934;2022-10-16T01:59:47;14.70;92.40
38480;DHT22;62333;51.980;5.934;2022-10-16T02:02:15;14.70;92.30
38480;DHT22;62333;51.980;5.934;2022-10-16T02:07:37;14.80;92.30
38480;DHT22;62333;51.980;5.934;2022-10-16T02:10:03;14.70;92.40
38480;DHT22;62333;51.980;5.934;2022-10-16T02:12:31;14.70;92.40
38480;DHT22;62333;51.980;5.934;2022-10-16T02:14:58;14.70;92.40
38480;DHT22;62333;51.980;5.934;2022-10-16T02:17:24;14.70;92.40
38480;DHT22;62333;51.980;5.934;2022-10-16T02:19:51;14.80;92.40
38480;DHT22;62333;51.980;5.934;2022-10-16T02:22:27;14.80;92.40
38480;DHT22;62333;51.980;5.934;2022-10-16T02:24:57;14.80;92.40
38480;DHT22;62333;51.980;5.934;2022-10-16T02:30:07;14.70;92.50
38480;DHT22;62333;51.980;5.934;2022-10-16T02:32:37;14.80;92.50
38480;DHT22;62333;51.980;5.934;2022-10-16T02:35:04;14.80;92.40
38480;DHT22;62333;51.980;5.934;2022-10-16T02:37:31;14.70;92.50
38480;DHT22;62333;51.980;5.934;2022-10-16T02:39:58;14.70;92.50
38480;DHT22;62333;51.980;5.934;2022-10-16T02:42:29;14.70;92.50
38480;DHT22;62333;51.980;5.934;2022-10-16T02:44:55;14.70;92.50
38480;DHT22;62333;51.980;5.934;2022-10-16T02:47:20;14.70;92.50
38480;DHT22;62333;51.980;5.934;2022-10-16T02:49:46;14.80;92.50
38480;DHT22;62333;51.980;5.934;2022-10-16T02:52:11;14.80;92.50
38480;DHT22;62333;51.980;5.934;2022-10-16T02:54:37;14.80;92.40
38480;DHT22;62333;51.980;5.934;2022-10-16T02:57:03;14.80;92.40
38480;DHT22;62333;51.980;5.934;2022-10-16T02:59:28;14.80;92.40
38480;DHT22;62333;51.980;5.934;2022-10-16T03:01:54;14.80;92.40
38480;DHT22;62333;51.980;5.934;2022-10-16T03:04:20;14.80;92.70
38480;DHT22;62333;51.980;5.934;2022-10-16T03:06:45;14.70;92.40
38480;DHT22;62333;51.980;5.934;2022-10-16T03:09:11;14.70;92.40
38480;DHT22;62333;51.980;5.934;2022-10-16T03:11:36;14.70;92.40
38480;DHT22;62333;51.980;5.934;2022-10-16T03:14:02;14.70;92.40
38480;DHT22;62333;51.980;5.934;2022-10-16T03:16:28;14.80;92.40
38480;DHT22;62333;51.980;5.934;2022-10-16T03:18:53;14.80;92.40
38480;DHT22;62333;51.980;5.934;2022-10-16T03:21:19;14.80;92.40
38480;DHT22;62333;51.980;5.934;2022-10-16T03:23:44;14.80;92.40
38480;DHT22;62333;51.980;5.934;2022-10-16T03:26:10;14.80;92.40
38480;DHT22;62333;51.980;5.934;2022-10-16T03:28:36;14.80;92.40
38480;DHT22;62333;51.980;5.934;2022-10-16T03:31:01;14.80;92.40
38480;DHT22;62333;51.980;5.934;2022-10-16T03:33:27;14.70;92.40
38480;DHT22;62333;51.980;5.934;2022-10-16T03:35:53;14.70;92.40
38480;DHT22;62333;51.980;5.934;2022-10-16T03:38:20;14.70;92.40
38480;DHT22;62333;51.980;5.934;2022-10-16T03:40:46;14.70;92.40
38480;DHT22;62333;51.980;5.934;2022-10-16T03:43:12;14.80;92.40
38480;DHT22;62333;51.980;5.934;2022-10-16T03:45:37;14.70;92.70
38480;DHT22;62333;51.980;5.934;2022-10-16T03:48:03;14.70;92.40
38480;DHT22;62333;51.980;5.934;2022-10-16T03:50:29;14.70;92.40
38480;DHT22;62333;51.980;5.934;2022-10-16T03:52:55;14.70;92.40
38480;DHT22;62333;51.980;5.934;2022-10-16T03:55:20;14.70;92.40
38480;DHT22;62333;51.980;5.934;2022-10-16T03:57:46;14.60;92.40
38480;DHT22;62333;51.980;5.934;2022-10-16T04:00:12;14.70;92.50
38480;DHT22;62333;51.980;5.934;2022-10-16T04:02:38;14.70;92.50
38480;DHT22;62333;51.980;5.934;2022-10-16T04:05:04;14.70;92.40
38480;DHT22;62333;51.980;5.934;2022-10-16T04:07:30;14.70;92.40
38480;DHT22;62333;51.980;5.934;2022-10-16T04:09:55;14.70;92.40
38480;DHT22;62333;51.980;5.934;2022-10-16T04:12:22;14.70;92.40
38480;DHT22;62333;51.980;5.934;2022-10-16T04:14:48;14.70;92.40
38480;DHT22;62333;51.980;5.934;2022-10-16T04:17:13;14.70;92.40
38480;DHT22;62333;51.980;5.934;2022-10-16T04:19:39;14.70;92.40
38480;DHT22;62333;51.980;5.934;2022-10-16T04:22:05;14.70;92.40
38480;DHT22;62333;51.980;5.934;2022-10-16T04:24:30;14.80;92.40
38480;DHT22;62333;51.980;5.934;2022-10-16T04:26:56;14.70;92.40
38480;DHT22;62333;51.980;5.934;2022-10-16T04:29:22;14.80;92.70
38480;DHT22;62333;51.980;5.934;2022-10-16T04:31:47;14.80;92.40
38480;DHT22;62333;51.980;5.934;2022-10-16T04:34:13;14.80;92.30
38480;DHT22;62333;51.980;5.934;2022-10-16T04:36:38;14.80;92.30
38480;DHT22;62333;51.980;5.934;2022-10-16T04:39:04;14.80;92.30
38480;DHT22;62333;51.980;5.934;2022-10-16T04:41:30;14.80;92.30
38480;DHT22;62333;51.980;5.934;2022-10-16T04:43:55;14.80;92.30
38480;DHT22;62333;51.980;5.934;2022-10-16T04:46:21;14.70;92.30
38480;DHT22;62333;51.980;5.934;2022-10-16T04:48:46;14.70;92.30
38480;DHT22;62333;51.980;5.934;2022-10-16T04:51:12;14.70;92.40
38480;DHT22;62333;51.980;5.934;2022-10-16T04:53:38;14.70;92.40
38480;DHT22;62333;51.980;5.934;2022-10-16T04:56:04;14.60;92.70
38480;DHT22;62333;51.980;5.934;2022-10-16T04:58:30;14.60;92.50
38480;DHT22;62333;51.980;5.934;2022-10-16T05:00:55;14.60;92.50
38480;DHT22;62333;51.980;5.934;2022-10-16T05:03:21;14.60;92.80
38480;DHT22;62333;51.980;5.934;2022-10-16T05:05:46;14.60;92.50
38480;DHT22;62333;51.980;5.934;2022-10-16T05:08:13;14.60;92.60
38480;DHT22;62333;51.980;5.934;2022-10-16T05:10:42;14.60;92.60
38480;DHT22;62333;51.980;5.934;2022-10-16T05:13:07;14.70;92.50
38480;DHT22;62333;51.980;5.934;2022-10-16T05:15:33;14.60;92.50
38480;DHT22;62333;51.980;5.934;2022-10-16T05:17:59;14.60;92.50
38480;DHT22;62333;51.980;5.934;2022-10-16T05:20:24;14.60;92.50
38480;DHT22;62333;51.980;5.934;2022-10-16T05:22:50;14.60;92.60
38480;DHT22;62333;51.980;5.934;2022-10-16T05:25:16;14.60;92.60
38480;DHT22;62333;51.980;5.934;2022-10-16T05:27:41;14.60;92.60
38480;DHT22;62333;51.980;5.934;2022-10-16T05:30:07;14.60;92.60
38480;DHT22;62333;51.980;5.934;2022-10-16T05:32:33;14.50;92.60
38480;DHT22;62333;51.980;5.934;2022-10-16T05:34:59;14.60;92.50
38480;DHT22;62333;51.980;5.934;2022-10-16T05:37:26;14.60;92.50
38480;DHT22;62333;51.980;5.934;2022-10-16T05:39:52;14.60;92.80
38480;DHT22;62333;51.980;5.934;2022-10-16T05:42:18;14.50;92.50
38480;DHT22;62333;51.980;5.934;2022-10-16T05:44:44;14.50;92.50
38480;DHT22;62333;51.980;5.934;2022-10-16T05:47:12;14.40;92.60
38480;DHT22;62333;51.980;5.934;2022-10-16T05:49:37;14.40;92.70
38480;DHT22;62333;51.980;5.934;2022-10-16T05:52:03;14.40;92.70
38480;DHT22;62333;51.980;5.934;2022-10-16T05:54:29;14.30;92.70
38480;DHT22;62333;51.980;5.934;2022-10-16T05:56:55;14.30;92.80
38480;DHT22;62333;51.980;5.934;2022-10-16T05:59:20;14.30;92.80
38480;DHT22;62333;51.980;5.934;2022-10-16T06:01:46;14.40;92.80
38480;DHT22;62333;51.980;5.934;2022-10-16T06:04:12;14.40;92.80
38480;DHT22;62333;51.980;5.934;2022-10-16T06:06:37;14.40;92.80
38480;DHT22;62333;51.980;5.934;2022-10-16T06:09:03;14.40;92.80
38480;DHT22;62333;51.980;5.934;2022-10-16T06:11:31;14.30;92.70
38480;DHT22;62333;51.980;5.934;2022-10-16T06:13:59;14.30;92.80
38480;DHT22;62333;51.980;5.934;2022-10-16T06:16:27;14.30;92.90
38480;DHT22;62333;51.980;5.934;2022-10-16T06:18:54;14.20;92.90
38480;DHT22;62333;51.980;5.934;2022-10-16T06:21:23;14.20;93.00
38480;DHT22;62333;51.980;5.934;2022-10-16T06:23:52;14.20;93.00
38480;DHT22;62333;51.980;5.934;2022-10-16T06:26:20;14.30;93.00
38480;DHT22;62333;51.980;5.934;2022-10-16T06:28:46;14.40;93.00
38480;DHT22;62333;51.980;5.934;2022-10-16T06:31:13;14.40;92.90
38480;DHT22;62333;51.980;5.934;2022-10-16T06:33:40;14.40;92.90
38480;DHT22;62333;51.980;5.934;2022-10-16T06:36:13;14.50;92.90
38480;DHT22;62333;51.980;5.934;2022-10-16T06:38:40;14.50;92.90
38480;DHT22;62333;51.980;5.934;2022-10-16T06:41:07;14.50;92.90
38480;DHT22;62333;51.980;5.934;2022-10-16T06:43:34;14.50;92.90
38480;DHT22;62333;51.980;5.934;2022-10-16T06:46:04;14.50;93.00
38480;DHT22;62333;51.980;5.934;2022-10-16T06:48:31;14.50;93.30
38480;DHT22;62333;51.980;5.934;2022-10-16T06:53:27;14.60;93.00
38480;DHT22;62333;51.980;5.934;2022-10-16T06:55:53;14.60;92.90
38480;DHT22;62333;51.980;5.934;2022-10-16T06:58:19;14.70;92.90
38480;DHT22;62333;51.980;5.934;2022-10-16T07:00:45;14.70;92.90
38480;DHT22;62333;51.980;5.934;2022-10-16T07:03:11;14.80;92.90
38480;DHT22;62333;51.980;5.934;2022-10-16T07:05:38;14.90;92.80
38480;DHT22;62333;51.980;5.934;2022-10-16T07:08:04;15.00;92.80
38480;DHT22;62333;51.980;5.934;2022-10-16T07:10:31;15.00;92.60
38480;DHT22;62333;51.980;5.934;2022-10-16T07:12:57;15.10;92.60
38480;DHT22;62333;51.980;5.934;2022-10-16T07:15:23;15.10;92.60
38480;DHT22;62333;51.980;5.934;2022-10-16T07:17:49;15.10;92.50
38480;DHT22;62333;51.980;5.934;2022-10-16T07:20:15;15.00;92.50
38480;DHT22;62333;51.980;5.934;2022-10-16T07:22:40;15.00;92.60
38480;DHT22;62333;51.980;5.934;2022-10-16T07:25:07;15.00;92.60
38480;DHT22;62333;51.980;5.934;2022-10-16T07:27:32;15.00;92.60
38480;DHT22;62333;51.980;5.934;2022-10-16T07:29:58;15.00;92.60
38480;DHT22;62333;51.980;5.934;2022-10-16T07:32:23;15.10;92.60
38480;DHT22;62333;51.980;5.934;2022-10-16T07:34:51;15.10;92.80
38480;DHT22;62333;51.980;5.934;2022-10-16T07:37:17;15.10;92.60
38480;DHT22;62333;51.980;5.934;2022-10-16T07:39:43;15.10;92.60
38480;DHT22;62333;51.980;5.934;2022-10-16T07:42:08;15.10;92.60
38480;DHT22;62333;51.980;5.934;2022-10-16T07:44:34;15.10;92.60
38480;DHT22;62333;51.980;5.934;2022-10-16T07:47:00;15.20;92.90
38480;DHT22;62333;51.980;5.934;2022-10-16T07:49:29;15.20;92.70
38480;DHT22;62333;51.980;5.934;2022-10-16T07:51:54;15.30;92.70
38480;DHT22;62333;51.980;5.934;2022-10-16T07:54:20;15.40;92.60
38480;DHT22;62333;51.980;5.934;2022-10-16T07:56:45;15.50;92.60
38480;DHT22;62333;51.980;5.934;2022-10-16T07:59:11;15.70;92.60
38480;DHT22;62333;51.980;5.934;2022-10-16T08:01:37;15.90;92.40
38480;DHT22;62333;51.980;5.934;2022-10-16T08:04:02;16.10;92.20
38480;DHT22;62333;51.980;5.934;2022-10-16T08:06:28;16.10;92.00
38480;DHT22;62333;51.980;5.934;2022-10-16T08:08:55;16.20;92.00
38480;DHT22;62333;51.980;5.934;2022-10-16T08:11:21;16.30;91.80
38480;DHT22;62333;51.980;5.934;2022-10-16T08:13:47;16.50;91.90
38480;DHT22;62333;51.980;5.934;2022-10-16T08:16:12;16.70;91.50
38480;DHT22;62333;51.980;5.934;2022-10-16T08:18:39;16.90;91.30
38480;DHT22;62333;51.980;5.934;2022-10-16T08:21:16;17.10;91.10
38480;DHT22;62333;51.980;5.934;2022-10-16T08:23:42;17.20;90.70
38480;DHT22;62333;51.980;5.934;2022-10-16T08:26:10;17.20;90.60
38480;DHT22;62333;51.980;5.934;2022-10-16T08:28:36;17.30;90.50
38480;DHT22;62333;51.980;5.934;2022-10-16T08:31:13;17.40;90.30
38480;DHT22;62333;51.980;5.934;2022-10-16T08:33:40;17.40;90.00
38480;DHT22;62333;51.980;5.934;2022-10-16T08:36:06;17.40;89.50
38480;DHT22;62333;51.980;5.934;2022-10-16T08:38:33;17.30;89.20
38480;DHT22;62333;51.980;5.934;2022-10-16T08:43:51;17.20;88.30
38480;DHT22;62333;51.980;5.934;2022-10-16T08:49:11;17.10;88.60
38480;DHT22;62333;51.980;5.934;2022-10-16T08:51:38;17.20;88.50
38480;DHT22;62333;51.980;5.934;2022-10-16T08:54:08;17.30;88.10
38480;DHT22;62333;51.980;5.934;2022-10-16T08:56:39;17.40;87.90
38480;DHT22;62333;51.980;5.934;2022-10-16T08:59:10;17.50;87.40
38480;DHT22;62333;51.980;5.934;2022-10-16T09:01:43;17.70;87.30
38480;DHT22;62333;51.980;5.934;2022-10-16T09:18:02;18.30;84.60
38480;DHT22;62333;51.980;5.934;2022-10-16T09:23:25;18.60;83.80
38480;DHT22;62333;51.980;5.934;2022-10-16T09:25:52;18.80;83.70
38480;DHT22;62333;51.980;5.934;2022-10-16T09:28:18;19.00;83.10
38480;DHT22;62333;51.980;5.934;2022-10-16T09:30:45;19.10;82.00
38480;DHT22;62333;51.980;5.934;2022-10-16T09:33:12;19.20;80.90
38480;DHT22;62333;51.980;5.934;2022-10-16T09:35:43;19.20;80.00
38480;DHT22;62333;51.980;5.934;2022-10-16T09:38:26;19.30;80.50
38480;DHT22;62333;51.980;5.934;2022-10-16T09:40:52;19.40;81.00
38480;DHT22;62333;51.980;5.934;2022-10-16T09:43:28;19.50;80.90
38480;DHT22;62333;51.980;5.934;2022-10-16T09:46:06;19.70;80.00
38480;DHT22;62333;51.980;5.934;2022-10-16T09:48:44;19.80;79.90
38480;DHT22;62333;51.980;5.934;2022-10-16T09:51:41;19.90;79.80
38480;DHT22;62333;51.980;5.934;2022-10-16T09:54:19;20.00;78.80
38480;DHT22;62333;51.980;5.934;2022-10-16T09:56:45;20.10;78.90
38480;DHT22;62333;51.980;5.934;2022-10-16T09:59:32;20.20;78.00
38480;DHT22;62333;51.980;5.934;2022-10-16T10:02:02;20.20;77.90
38480;DHT22;62333;51.980;5.934;2022-10-16T10:04:39;20.40;78.30
38480;DHT22;62333;51.980;5.934;2022-10-16T10:07:07;20.60;77.20
38480;DHT22;62333;51.980;5.934;2022-10-16T10:09:44;20.70;77.30
38480;DHT22;62333;51.980;5.934;2022-10-16T10:12:19;20.90;76.90
38480;DHT22;62333;51.980;5.934;2022-10-16T10:14:54;21.10;76.50
38480;DHT22;62333;51.980;5.934;2022-10-16T10:19:49;21.40;75.90
38480;DHT22;62333;51.980;5.934;2022-10-16T10:35:27;22.40;73.00
38480;DHT22;62333;51.980;5.934;2022-10-16T10:49:20;22.90;66.70
38480;DHT22;62333;51.980;5.934;2022-10-16T10:57:21;23.20;66.10
38480;DHT22;62333;51.980;5.934;2022-10-16T11:00:12;23.30;65.40
38480;DHT22;62333;51.980;5.934;2022-10-16T11:08:09;23.30;61.70
38480;DHT22;62333;51.980;5.934;2022-10-16T11:11:30;23.30;62.00
38480;DHT22;62333;51.980;5.934;2022-10-16T11:16:52;23.20;62.20
38480;DHT22;62333;51.980;5.934;2022-10-16T11:19:37;23.30;62.10
38480;DHT22;62333;51.980;5.934;2022-10-16T11:22:18;23.30;61.40
38480;DHT22;62333;51.980;5.934;2022-10-16T11:24:49;23.40;61.30
38480;DHT22;62333;51.980;5.934;2022-10-16T11:27:22;23.60;60.90
38480;DHT22;62333;51.980;5.934;2022-10-16T11:30:02;23.60;60.60
38480;DHT22;62333;51.980;5.934;2022-10-16T11:32:47;23.70;60.90
38480;DHT22;62333;51.980;5.934;2022-10-16T11:35:24;23.80;58.70
38480;DHT22;62333;51.980;5.934;2022-10-16T11:37:53;23.70;58.30
38480;DHT22;62333;51.980;5.934;2022-10-16T11:40:31;23.60;59.50
38480;DHT22;62333;51.980;5.934;2022-10-16T11:43:28;23.80;59.60
38480;DHT22;62333;51.980;5.934;2022-10-16T11:46:04;23.80;59.30
38480;DHT22;62333;51.980;5.934;2022-10-16T11:48:36;24.00;59.60
38480;DHT22;62333;51.980;5.934;2022-10-16T11:56:28;23.80;58.00
38480;DHT22;62333;51.980;5.934;2022-10-16T11:59:08;23.70;57.80
38480;DHT22;62333;51.980;5.934;2022-10-16T12:01:46;23.60;57.70
38480;DHT22;62333;51.980;5.934;2022-10-16T12:04:21;23.60;58.00
38480;DHT22;62333;51.980;5.934;2022-10-16T12:07:05;23.60;56.80
38480;DHT22;62333;51.980;5.934;2022-10-16T12:09:36;23.50;57.00
38480;DHT22;62333;51.980;5.934;2022-10-16T12:12:02;23.50;57.50
38480;DHT22;62333;51.980;5.934;2022-10-16T12:14:40;23.50;57.60
38480;DHT22;62333;51.980;5.934;2022-10-16T12:17:34;23.60;57.80
38480;DHT22;62333;51.980;5.934;2022-10-16T12:20:33;23.70;58.00
38480;DHT22;62333;51.980;5.934;2022-10-16T12:23:04;23.70;58.10
38480;DHT22;62333;51.980;5.934;2022-10-16T12:25:36;23.70;58.50
38480;DHT22;62333;51.980;5.934;2022-10-16T12:28:19;23.70;58.60
38480;DHT22;62333;51.980;5.934;2022-10-16T12:31:01;23.80;58.60
38480;DHT22;62333;51.980;5.934;2022-10-16T12:33:30;23.80;56.70
38480;DHT22;62333;51.980;5.934;2022-10-16T12:35:59;23.70;56.60
38480;DHT22;62333;51.980;5.934;2022-10-16T12:41:07;23.70;55.60
38480;DHT22;62333;51.980;5.934;2022-10-16T12:46:19;23.70;56.00
38480;DHT22;62333;51.980;5.934;2022-10-16T12:48:45;23.70;55.80
38480;DHT22;62333;51.980;5.934;2022-10-16T12:54:13;23.70;55.70
38480;DHT22;62333;51.980;5.934;2022-10-16T13:05:32;23.80;56.40
38480;DHT22;62333;51.980;5.934;2022-10-16T13:08:26;23.80;56.20
38480;DHT22;62333;51.980;5.934;2022-10-16T13:12:11;23.90;56.40
38480;DHT22;62333;51.980;5.934;2022-10-16T13:22:40;23.80;54.60
38480;DHT22;62333;51.980;5.934;2022-10-16T13:28:09;23.80;54.90
38480;DHT22;62333;51.980;5.934;2022-10-16T13:30:42;23.90;54.90
38480;DHT22;62333;51.980;5.934;2022-10-16T13:33:40;23.90;55.00
38480;DHT22;62333;51.980;5.934;2022-10-16T13:36:22;23.90;54.80
38480;DHT22;62333;51.980;5.934;2022-10-16T13:38:48;23.90;54.70
38480;DHT22;62333;51.980;5.934;2022-10-16T13:41:17;23.90;54.70
38480;DHT22;62333;51.980;5.934;2022-10-16T13:43:50;23.80;54.60
38480;DHT22;62333;51.980;5.934;2022-10-16T13:46:19;23.80;54.50
38480;DHT22;62333;51.980;5.934;2022-10-16T13:48:59;23.70;54.10
38480;DHT22;62333;51.980;5.934;2022-10-16T13:51:25;23.70;54.10
38480;DHT22;62333;51.980;5.934;2022-10-16T13:53:51;23.70;54.40
38480;DHT22;62333;51.980;5.934;2022-10-16T13:56:19;23.60;53.60
38480;DHT22;62333;51.980;5.934;2022-10-16T13:58:45;23.50;53.80
38480;DHT22;62333;51.980;5.934;2022-10-16T14:01:23;23.50;53.90
38480;DHT22;62333;51.980;5.934;2022-10-16T14:03:51;23.50;54.10
38480;DHT22;62333;51.980;5.934;2022-10-16T14:06:20;23.40;53.60
38480;DHT22;62333;51.980;5.934;2022-10-16T14:08:57;23.40;53.40
38480;DHT22;62333;51.980;5.934;2022-10-16T14:11:24;23.40;53.40
38480;DHT22;62333;51.980;5.934;2022-10-16T14:13:51;23.30;53.20
38480;DHT22;62333;51.980;5.934;2022-10-16T14:16:22;23.10;52.80
38480;DHT22;62333;51.980;5.934;2022-10-16T14:18:58;22.90;52.80
38480;DHT22;62333;51.980;5.934;2022-10-16T14:21:25;22.90;53.20
38480;DHT22;62333;51.980;5.934;2022-10-16T14:23:52;22.80;53.60
38480;DHT22;62333;51.980;5.934;2022-10-16T14:26:21;22.70;53.80
38480;DHT22;62333;51.980;5.934;2022-10-16T14:28:49;22.70;53.90
38480;DHT22;62333;51.980;5.934;2022-10-16T14:31:28;22.50;53.80
38480;DHT22;62333;51.980;5.934;2022-10-16T14:33:54;22.40;54.10
38480;DHT22;62333;51.980;5.934;2022-10-16T14:36:20;22.30;54.30
38480;DHT22;62333;51.980;5.934;2022-10-16T14:39:05;22.20;54.70
38480;DHT22;62333;51.980;5.934;2022-10-16T14:41:41;22.20;55.00
38480;DHT22;62333;51.980;5.934;2022-10-16T14:44:12;22.10;54.80
38480;DHT22;62333;51.980;5.934;2022-10-16T14:46:39;22.00;55.20
38480;DHT22;62333;51.980;5.934;2022-10-16T14:51:35;22.00;55.90
38480;DHT22;62333;51.980;5.934;2022-10-16T14:54:00;22.00;55.90
38480;DHT22;62333;51.980;5.934;2022-10-16T14:56:51;22.00;56.20
38480;DHT22;62333;51.980;5.934;2022-10-16T14:59:37;21.90;56.20
38480;DHT22;62333;51.980;5.934;2022-10-16T15:02:30;21.90;56.50
38480;DHT22;62333;51.980;5.934;2022-10-16T15:04:57;21.80;56.70
38480;DHT22;62333;51.980;5.934;2022-10-16T15:07:23;21.80;56.90
38480;DHT22;62333;51.980;5.934;2022-10-16T15:09:49;21.70;56.70
38480;DHT22;62333;51.980;5.934;2022-10-16T15:12:15;21.70;57.00
38480;DHT22;62333;51.980;5.934;2022-10-16T15:14:40;21.70;57.10
38480;DHT22;62333;51.980;5.934;2022-10-16T15:17:11;21.60;57.20
38480;DHT22;62333;51.980;5.934;2022-10-16T15:19:37;21.50;57.30
38480;DHT22;62333;51.980;5.934;2022-10-16T15:22:03;21.40;57.40
38480;DHT22;62333;51.980;5.934;2022-10-16T15:24:28;21.30;57.60
38480;DHT22;62333;51.980;5.934;2022-10-16T15:26:54;21.30;58.00
38480;DHT22;62333;51.980;5.934;2022-10-16T15:29:20;21.30;57.80
38480;DHT22;62333;51.980;5.934;2022-10-16T15:31:45;21.10;58.00
38480;DHT22;62333;51.980;5.934;2022-10-16T15:34:13;21.10;58.40
38480;DHT22;62333;51.980;5.934;2022-10-16T15:36:39;21.00;58.50
38480;DHT22;62333;51.980;5.934;2022-10-16T15:39:19;21.00;58.60
38480;DHT22;62333;51.980;5.934;2022-10-16T15:41:46;20.90;59.00
38480;DHT22;62333;51.980;5.934;2022-10-16T15:44:17;20.90;59.80
38480;DHT22;62333;51.980;5.934;2022-10-16T15:46:43;20.90;59.30
38480;DHT22;62333;51.980;5.934;2022-10-16T15:49:09;20.90;59.60
38480;DHT22;62333;51.980;5.934;2022-10-16T15:51:38;20.90;59.80
38480;DHT22;62333;51.980;5.934;2022-10-16T15:54:04;20.90;59.90
38480;DHT22;62333;51.980;5.934;2022-10-16T15:56:30;20.90;60.00
38480;DHT22;62333;51.980;5.934;2022-10-16T15:58:59;20.80;60.00
38480;DHT22;62333;51.980;5.934;2022-10-16T16:01:25;20.80;60.20
38480;DHT22;62333;51.980;5.934;2022-10-16T16:03:54;20.70;60.20
38480;DHT22;62333;51.980;5.934;2022-10-16T16:06:21;20.70;60.40
38480;DHT22;62333;51.980;5.934;2022-10-16T16:08:46;20.70;61.20
38480;DHT22;62333;51.980;5.934;2022-10-16T16:11:14;20.60;60.70
38480;DHT22;62333;51.980;5.934;2022-10-16T16:13:40;20.60;60.80
38480;DHT22;62333;51.980;5.934;2022-10-16T16:16:12;20.60;60.90
38480;DHT22;62333;51.980;5.934;2022-10-16T16:18:38;20.60;61.20
38480;DHT22;62333;51.980;5.934;2022-10-16T16:21:04;20.60;61.40
38480;DHT22;62333;51.980;5.934;2022-10-16T16:23:30;20.60;61.80
38480;DHT22;62333;51.980;5.934;2022-10-16T16:26:24;20.60;62.10
38480;DHT22;62333;51.980;5.934;2022-10-16T16:28:58;20.60;62.50
38480;DHT22;62333;51.980;5.934;2022-10-16T16:31:28;20.50;63.10
38480;DHT22;62333;51.980;5.934;2022-10-16T16:33:54;20.50;63.60
38480;DHT22;62333;51.980;5.934;2022-10-16T16:36:20;20.50;63.80
38480;DHT22;62333;51.980;5.934;2022-10-16T16:38:46;20.50;64.20
38480;DHT22;62333;51.980;5.934;2022-10-16T16:41:20;20.40;64.20
38480;DHT22;62333;51.980;5.934;2022-10-16T16:43:46;20.40;64.30
38480;DHT22;62333;51.980;5.934;2022-10-16T16:46:19;20.40;64.40
38480;DHT22;62333;51.980;5.934;2022-10-16T16:48:45;20.40;64.70
38480;DHT22;62333;51.980;5.934;2022-10-16T16:51:14;20.40;64.90
38480;DHT22;62333;51.980;5.934;2022-10-16T16:53:49;20.30;65.10
38480;DHT22;62333;51.980;5.934;2022-10-16T16:56:16;20.30;65.40
38480;DHT22;62333;51.980;5.934;2022-10-16T16:58:45;20.30;65.70
38480;DHT22;62333;51.980;5.934;2022-10-16T17:01:11;20.30;66.10
38480;DHT22;62333;51.980;5.934;2022-10-16T17:03:37;20.30;66.40
38480;DHT22;62333;51.980;5.934;2022-10-16T17:06:07;20.20;66.80
38480;DHT22;62333;51.980;5.934;2022-10-16T17:08:34;20.20;67.20
38480;DHT22;62333;51.980;5.934;2022-10-16T17:11:00;20.10;67.40
38480;DHT22;62333;51.980;5.934;2022-10-16T17:13:29;20.10;67.70
38480;DHT22;62333;51.980;5.934;2022-10-16T17:15:55;20.00;67.90
38480;DHT22;62333;51.980;5.934;2022-10-16T17:18:22;20.00;68.20
38480;DHT22;62333;51.980;5.934;2022-10-16T17:20:49;20.00;68.50
38480;DHT22;62333;51.980;5.934;2022-10-16T17:23:16;19.90;68.60
38480;DHT22;62333;51.980;5.934;2022-10-16T17:25:43;19.90;68.90
38480;DHT22;62333;51.980;5.934;2022-10-16T17:28:10;19.80;69.20
38480;DHT22;62333;51.980;5.934;2022-10-16T17:30:37;19.80;69.40
38480;DHT22;62333;51.980;5.934;2022-10-16T17:33:04;19.70;69.60
38480;DHT22;62333;51.980;5.934;2022-10-16T17:35:38;19.70;69.80
38480;DHT22;62333;51.980;5.934;2022-10-16T17:38:04;19.70;70.00
38480;DHT22;62333;51.980;5.934;2022-10-16T17:40:30;19.60;70.10
38480;DHT22;62333;51.980;5.934;2022-10-16T17:42:56;19.60;70.30
38480;DHT22;62333;51.980;5.934;2022-10-16T17:45:22;19.60;70.50
38480;DHT22;62333;51.980;5.934;2022-10-16T17:47:47;19.60;70.80